Time;durP1;ratioP1;P1;durP2;ratioP2;P2;SDS_P1;SDS_P2;PMS_P1;PMS_P2;Temp;Humidity;BMP_temperature;BMP_pressure;BME280_temperature;BME280_humidity;BME280_pressure;Samples;Min_cycle;Max_cycle;Signal;HPM_P1;HPM_P2
2024/01/09 00:00:05;;;;;;;0.20;0.20;;;;;;;;;;4967212;28;20225;-69
2024/01/09 00:02:31;;;;;;;1.13;0.73;;;;;;;;;;4966679;28;20714;-70
2024/01/09 00:04:58;;;;;;;1.33;0.93;;;;;;;;;;4967342;28;20245;-70
2024/01/09 00:07:27;;;;;;;0.40;0.40;;;;;;;;;;4968206;28;20229;-70
2024/01/09 00:09:54;;;;;;;1.13;1.13;;;;;;;;;;4964202;28;20320;-70
2024/01/09 00:12:20;;;;;;;0.80;0.80;;;;;;;;;;4964776;28;20238;-70
2024/01/09 00:14:48;;;;;;;0.40;0.40;;;;;;;;;;4966271;28;20226;-70
2024/01/09 00:17:15;;;;;;;0.30;0.30;;;;;;;;;;4966864;28;20367;-68
2024/01/09 00:19:41;;;;;;;1.43;1.33;;;;;;;;;;4986724;28;20951;-68
2024/01/09 00:22:08;;;;;;;0.90;0.70;;;;;;;;;;4968992;28;20249;-69
2024/01/09 00:24:34;;;;;;;0.40;0.40;;;;;;;;;;4965263;28;20234;-70
2024/01/09 00:27:01;;;;;;;0.60;0.47;;;;;;;;;;4967749;28;20238;-70
2024/01/09 00:29:27;;;;;;;0.20;0.20;;;;;;;;;;4963349;28;20230;-70
2024/01/09 00:31:54;;;;;;;0.30;0.30;;;;;;;;;;4964158;28;20752;-70
2024/01/09 00:34:20;;;;;;;0.30;0.30;;;;;;;;;;4964692;28;20234;-70
2024/01/09 00:36:47;;;;;;;0.60;0.60;;;;;;;;;;4963414;28;20238;-69
2024/01/09 00:39:15;;;;;;;0.40;0.40;;;;;;;;;;4962270;28;20249;-70
2024/01/09 00:41:42;;;;;;;1.40;0.37;;;;;;;;;;4968158;28;20238;-67
2024/01/09 00:44:09;;;;;;;0.30;0.30;;;;;;;;;;4984148;28;20230;-69
2024/01/09 00:46:35;;;;;;;0.70;0.70;;;;;;;;;;4985319;28;20506;-69
2024/01/09 00:49:01;;;;;;;1.60;1.50;;;;;;;;;;4968558;28;20273;-69
2024/01/09 00:51:28;;;;;;;1.40;1.23;;;;;;;;;;4960085;28;20761;-68
2024/01/09 00:53:55;;;;;;;0.30;0.30;;;;;;;;;;4961949;28;20238;-70
2024/01/09 00:56:21;;;;;;;0.30;0.30;;;;;;;;;;4978584;28;20640;-70
2024/01/09 00:58:48;;;;;;;0.30;0.30;;;;;;;;;;4969900;28;20629;-69
2024/01/09 01:01:14;;;;;;;1.07;0.97;;;;;;;;;;4972032;28;20236;-69
2024/01/09 01:03:42;;;;;;;1.50;0.63;;;;;;;;;;4987802;28;20307;-69
2024/01/09 01:06:09;;;;;;;0.30;0.30;;;;;;;;;;4984391;28;20261;-70
2024/01/09 01:08:37;;;;;;;0.60;0.60;;;;;;;;;;4985553;28;20226;-70
2024/01/09 01:11:05;;;;;;;0.30;0.30;;;;;;;;;;4982318;28;20228;-69
2024/01/09 01:13:32;;;;;;;5.10;2.13;;;;;;;;;;4980018;28;20232;-70
2024/01/09 01:15:59;;;;;;;0.47;0.47;;;;;;;;;;4978655;28;20336;-70
2024/01/09 01:18:26;;;;;;;0.20;0.20;;;;;;;;;;4985115;28;20222;-70
2024/01/09 01:20:52;;;;;;;0.80;0.80;;;;;;;;;;4988168;28;20256;-70
2024/01/09 01:23:19;;;;;;;0.40;0.40;;;;;;;;;;4988160;28;20232;-70
2024/01/09 01:25:45;;;;;;;0.30;0.30;;;;;;;;;;4991228;28;20235;-69
2024/01/09 01:28:12;;;;;;;0.83;0.83;;;;;;;;;;4973548;28;20702;-70
2024/01/09 01:30:38;;;;;;;0.60;0.60;;;;;;;;;;4967207;28;20261;-68
2024/01/09 01:33:05;;;;;;;0.20;0.20;;;;;;;;;;4983324;28;20233;-70
2024/01/09 01:35:31;;;;;;;0.20;0.20;;;;;;;;;;4988554;28;20237;-69
2024/01/09 01:37:58;;;;;;;0.80;0.80;;;;;;;;;;4984391;28;20235;-70
2024/01/09 01:40:24;;;;;;;0.20;0.20;;;;;;;;;;4989017;28;20708;-70
2024/01/09 01:42:50;;;;;;;1.43;1.23;;;;;;;;;;4988713;28;21033;-68
2024/01/09 01:45:22;;;;;;;5.33;1.37;;;;;;;;;;4982054;28;20229;-69
2024/01/09 01:47:48;;;;;;;1.03;1.03;;;;;;;;;;4963151;28;20484;-70
2024/01/09 01:50:15;;;;;;;0.37;0.37;;;;;;;;;;4959412;28;20265;-70
2024/01/09 01:52:44;;;;;;;0.40;0.40;;;;;;;;;;4969389;28;20734;-70
2024/01/09 01:55:12;;;;;;;3.10;1.13;;;;;;;;;;4968837;28;20234;-69
2024/01/09 01:57:39;;;;;;;0.20;0.20;;;;;;;;;;4968392;28;20750;-70
2024/01/09 02:00:06;;;;;;;0.30;0.30;;;;;;;;;;4970057;28;20234;-68
2024/01/09 02:02:34;;;;;;;0.60;0.60;;;;;;;;;;4970141;28;20237;-70
2024/01/09 02:05:02;;;;;;;0.77;0.77;;;;;;;;;;4963982;28;20257;-70
2024/01/09 02:07:33;;;;;;;0.67;0.67;;;;;;;;;;4969237;28;20262;-68
2024/01/09 02:09:59;;;;;;;1.13;1.13;;;;;;;;;;4963880;28;20260;-70
2024/01/09 02:12:25;;;;;;;0.70;0.70;;;;;;;;;;4967279;28;20801;-70
2024/01/09 02:14:52;;;;;;;0.47;0.47;;;;;;;;;;4969009;28;20234;-69
2024/01/09 02:17:18;;;;;;;0.20;0.20;;;;;;;;;;4961449;28;20746;-68
2024/01/09 02:19:45;;;;;;;0.40;0.40;;;;;;;;;;4955711;28;20230;-70
2024/01/09 02:22:13;;;;;;;0.40;0.40;;;;;;;;;;4960524;28;20230;-70
2024/01/09 02:24:39;;;;;;;0.20;0.20;;;;;;;;;;4963902;28;20237;-70
2024/01/09 02:27:47;;;;;;;0.80;0.80;;;;;;;;;;4962696;28;20236;-70
2024/01/09 02:30:14;;;;;;;5.73;1.30;;;;;;;;;;4957295;28;20649;-67
2024/01/09 02:32:42;;;;;;;0.60;0.60;;;;;;;;;;4957125;28;20637;-69
2024/01/09 02:35:09;;;;;;;0.50;0.50;;;;;;;;;;4964146;28;20226;-70
2024/01/09 02:37:35;;;;;;;0.20;0.20;;;;;;;;;;4961526;28;20325;-69
2024/01/09 02:40:02;;;;;;;0.20;0.20;;;;;;;;;;4965692;28;20233;-70
2024/01/09 02:42:29;;;;;;;0.73;0.73;;;;;;;;;;4961115;28;21072;-70
2024/01/09 02:44:56;;;;;;;0.70;0.70;;;;;;;;;;4957511;28;20633;-68
2024/01/09 02:47:23;;;;;;;0.70;0.70;;;;;;;;;;4957555;28;20226;-70
2024/01/09 02:49:50;;;;;;;0.70;0.70;;;;;;;;;;4957944;28;20241;-70
2024/01/09 02:52:17;;;;;;;0.60;0.60;;;;;;;;;;4966745;28;20249;-70
2024/01/09 02:54:44;;;;;;;0.30;0.30;;;;;;;;;;4985475;28;20226;-68
2024/01/09 02:57:12;;;;;;;1.57;1.47;;;;;;;;;;4976657;28;20234;-70
2024/01/09 02:59:38;;;;;;;0.40;0.40;;;;;;;;;;4965988;28;21046;-69
2024/01/09 03:02:06;;;;;;;0.30;0.30;;;;;;;;;;4962796;28;20336;-70
2024/01/09 03:04:32;;;;;;;2.20;1.07;;;;;;;;;;4966184;28;20245;-69
2024/01/09 03:06:58;;;;;;;0.37;0.37;;;;;;;;;;4965780;28;20455;-70
2024/01/09 03:09:25;;;;;;;3.13;2.93;;;;;;;;;;4968169;28;20246;-70
2024/01/09 03:11:53;;;;;;;0.53;0.50;;;;;;;;;;4964674;28;20230;-70
2024/01/09 03:14:20;;;;;;;0.30;0.30;;;;;;;;;;4983661;28;20222;-69
2024/01/09 03:16:48;;;;;;;0.40;0.40;;;;;;;;;;4986194;28;20238;-69
2024/01/09 03:19:15;;;;;;;0.40;0.40;;;;;;;;;;4987250;28;20242;-68
2024/01/09 03:21:41;;;;;;;0.20;0.20;;;;;;;;;;4973754;28;20236;-70
2024/01/09 03:24:09;;;;;;;0.60;0.60;;;;;;;;;;4969527;28;20228;-70
2024/01/09 03:26:35;;;;;;;0.97;0.97;;;;;;;;;;4968640;28;20238;-70
2024/01/09 03:29:04;;;;;;;0.20;0.20;;;;;;;;;;4968720;28;20333;-70
2024/01/09 03:31:30;;;;;;;0.40;0.40;;;;;;;;;;4966016;28;20234;-69
2024/01/09 03:33:57;;;;;;;0.40;0.40;;;;;;;;;;4963177;28;20719;-70
2024/01/09 03:36:23;;;;;;;0.53;0.53;;;;;;;;;;4968246;28;20328;-70
2024/01/09 03:38:55;;;;;;;0.60;0.60;;;;;;;;;;4968680;28;20230;-69
2024/01/09 03:41:22;;;;;;;0.30;0.30;;;;;;;;;;4970150;28;20676;-70
2024/01/09 03:43:48;;;;;;;0.43;0.43;;;;;;;;;;4967780;28;20286;-70
2024/01/09 03:46:15;;;;;;;0.20;0.20;;;;;;;;;;4968200;28;20229;-69
2024/01/09 03:48:41;;;;;;;1.00;1.00;;;;;;;;;;4968720;28;20229;-71
2024/01/09 03:51:08;;;;;;;2.67;1.13;;;;;;;;;;4965305;28;20234;-70
2024/01/09 03:53:34;;;;;;;0.97;0.97;;;;;;;;;;4961633;28;20712;-70
2024/01/09 03:56:01;;;;;;;0.30;0.30;;;;;;;;;;4968497;28;20234;-70
2024/01/09 03:58:27;;;;;;;0.80;0.80;;;;;;;;;;4966081;28;20265;-69
2024/01/09 04:00:54;;;;;;;0.30;0.30;;;;;;;;;;4981566;28;20236;-69
2024/01/09 04:03:21;;;;;;;0.40;0.40;;;;;;;;;;4965280;28;20260;-70
2024/01/09 04:05:47;;;;;;;0.30;0.30;;;;;;;;;;4966668;28;20242;-70
2024/01/09 04:08:14;;;;;;;1.03;1.03;;;;;;;;;;4964989;28;20233;-70
2024/01/09 04:10:41;;;;;;;0.50;0.50;;;;;;;;;;4966038;28;20232;-70
2024/01/09 04:13:07;;;;;;;0.80;0.80;;;;;;;;;;4961800;28;20232;-70
2024/01/09 04:15:34;;;;;;;1.13;1.03;;;;;;;;;;4964438;28;20230;-68
2024/01/09 04:18:01;;;;;;;0.40;0.40;;;;;;;;;;4965902;28;20735;-70
2024/01/09 04:20:28;;;;;;;0.30;0.30;;;;;;;;;;4967137;28;20255;-70
2024/01/09 04:22:54;;;;;;;0.80;0.80;;;;;;;;;;4961430;28;20308;-70
2024/01/09 04:25:20;;;;;;;0.77;0.77;;;;;;;;;;4981997;28;20230;-70
2024/01/09 04:27:47;;;;;;;0.83;0.83;;;;;;;;;;4971094;28;20621;-70
2024/01/09 04:30:13;;;;;;;0.50;0.50;;;;;;;;;;4967362;28;20222;-69
2024/01/09 04:32:40;;;;;;;0.40;0.40;;;;;;;;;;4964941;28;20626;-70
2024/01/09 04:35:07;;;;;;;0.93;0.93;;;;;;;;;;4967465;28;20245;-70
2024/01/09 04:37:33;;;;;;;0.63;0.63;;;;;;;;;;4964727;28;20233;-70
2024/01/09 04:40:00;;;;;;;0.37;0.37;;;;;;;;;;4966850;28;20213;-70
2024/01/09 04:42:27;;;;;;;0.97;0.97;;;;;;;;;;4964753;28;20228;-70
2024/01/09 04:44:54;;;;;;;0.30;0.30;;;;;;;;;;4964329;28;20241;-68
2024/01/09 04:47:20;;;;;;;0.67;0.57;;;;;;;;;;4965333;28;20251;-70
2024/01/09 04:49:47;;;;;;;0.77;0.77;;;;;;;;;;4963153;28;20715;-69
2024/01/09 04:52:13;;;;;;;0.47;0.47;;;;;;;;;;4961830;28;20234;-70
2024/01/09 04:54:39;;;;;;;1.27;1.20;;;;;;;;;;4963002;28;20742;-70
2024/01/09 04:57:06;;;;;;;0.33;0.33;;;;;;;;;;4964190;28;20242;-70
2024/01/09 04:59:32;;;;;;;0.50;0.50;;;;;;;;;;4966099;28;20241;-70
2024/01/09 05:02:01;;;;;;;1.70;1.27;;;;;;;;;;4963641;28;21029;-70
2024/01/09 05:04:29;;;;;;;0.60;0.60;;;;;;;;;;4965660;28;20714;-70
2024/01/09 05:06:55;;;;;;;0.20;0.20;;;;;;;;;;4963381;28;20231;-70
2024/01/09 05:09:21;;;;;;;0.40;0.40;;;;;;;;;;4963283;28;20230;-69
2024/01/09 05:11:48;;;;;;;0.97;0.97;;;;;;;;;;4964321;28;20593;-70
2024/01/09 05:14:14;;;;;;;0.73;0.67;;;;;;;;;;4966217;28;20295;-68
2024/01/09 05:16:41;;;;;;;2.10;1.80;;;;;;;;;;4967917;28;20239;-70
2024/01/09 05:19:07;;;;;;;0.43;0.43;;;;;;;;;;4964635;28;20241;-70
2024/01/09 05:21:35;;;;;;;1.03;1.03;;;;;;;;;;4965600;28;20234;-68
2024/01/09 05:24:04;;;;;;;0.33;0.33;;;;;;;;;;4967968;28;20233;-70
2024/01/09 05:26:30;;;;;;;0.30;0.30;;;;;;;;;;4982140;28;20241;-70
2024/01/09 05:28:56;;;;;;;0.30;0.30;;;;;;;;;;4965472;28;20234;-68
2024/01/09 05:31:23;;;;;;;0.43;0.43;;;;;;;;;;4988322;28;20236;-68
2024/01/09 05:33:51;;;;;;;1.60;1.33;;;;;;;;;;4973270;28;20265;-70
2024/01/09 05:36:22;;;;;;;1.30;1.13;;;;;;;;;;4966986;28;20226;-70
2024/01/09 05:38:51;;;;;;;0.30;0.30;;;;;;;;;;4963598;28;20325;-70
2024/01/09 05:41:19;;;;;;;1.60;1.00;;;;;;;;;;4967513;28;20226;-70
2024/01/09 05:43:46;;;;;;;0.63;0.63;;;;;;;;;;4990286;28;20227;-68
2024/01/09 05:46:12;;;;;;;0.57;0.50;;;;;;;;;;4990866;28;20206;-69
2024/01/09 05:48:40;;;;;;;0.60;0.60;;;;;;;;;;4966373;28;20237;-70
2024/01/09 05:51:07;;;;;;;0.47;0.47;;;;;;;;;;4966674;28;20234;-69
2024/01/09 05:53:37;;;;;;;0.40;0.40;;;;;;;;;;4966460;28;20226;-68
2024/01/09 05:56:04;;;;;;;0.40;0.40;;;;;;;;;;4961018;28;20238;-70
2024/01/09 05:58:30;;;;;;;2.50;2.30;;;;;;;;;;4961575;28;20228;-69
2024/01/09 06:00:57;;;;;;;0.90;0.90;;;;;;;;;;4960452;28;20222;-69
2024/01/09 06:03:23;;;;;;;0.33;0.33;;;;;;;;;;4962620;28;20308;-69
2024/01/09 06:05:50;;;;;;;0.77;0.73;;;;;;;;;;4965302;28;20730;-70
2024/01/09 06:08:16;;;;;;;3.20;2.70;;;;;;;;;;4964068;28;20230;-70
2024/01/09 06:10:43;;;;;;;1.40;0.70;;;;;;;;;;4965569;28;20314;-69
2024/01/09 06:13:09;;;;;;;0.50;0.50;;;;;;;;;;4966729;28;20249;-70
2024/01/09 06:15:36;;;;;;;0.57;0.57;;;;;;;;;;4967889;28;20229;-70
2024/01/09 06:18:02;;;;;;;0.40;0.40;;;;;;;;;;4968201;28;20230;-70
2024/01/09 06:20:29;;;;;;;0.40;0.40;;;;;;;;;;4968558;28;20858;-70
2024/01/09 06:22:55;;;;;;;1.23;0.80;;;;;;;;;;4968221;28;20222;-70
2024/01/09 06:25:22;;;;;;;0.80;0.80;;;;;;;;;;4965637;28;20230;-70
2024/01/09 06:27:48;;;;;;;1.63;1.53;;;;;;;;;;4977381;28;20244;-70
2024/01/09 06:30:15;;;;;;;1.50;1.00;;;;;;;;;;4986847;28;20221;-69
2024/01/09 06:32:42;;;;;;;0.20;0.20;;;;;;;;;;4999033;28;20233;-70
2024/01/09 06:35:09;;;;;;;0.77;0.77;;;;;;;;;;4981343;28;20717;-70
2024/01/09 06:37:35;;;;;;;1.20;1.10;;;;;;;;;;4966388;28;20250;-70
2024/01/09 06:40:03;;;;;;;0.30;0.30;;;;;;;;;;4966637;28;20607;-70
2024/01/09 06:42:29;;;;;;;2.37;2.10;;;;;;;;;;4962616;28;20229;-70
2024/01/09 06:44:55;;;;;;;0.63;0.63;;;;;;;;;;4963956;28;20250;-74
2024/01/09 06:47:22;;;;;;;1.20;1.10;;;;;;;;;;4966140;28;20237;-72
2024/01/09 06:49:49;;;;;;;0.60;0.60;;;;;;;;;;4970031;28;20242;-72
2024/01/09 06:52:20;;;;;;;8.80;2.63;;;;;;;;;;4964337;28;20218;-71
2024/01/09 06:54:46;;;;;;;0.30;0.30;;;;;;;;;;4965851;28;20230;-71
2024/01/09 06:57:12;;;;;;;0.60;0.60;;;;;;;;;;4968739;28;20235;-71
2024/01/09 06:59:43;;;;;;;2.07;1.10;;;;;;;;;;4965372;28;20233;-72
2024/01/09 07:02:10;;;;;;;0.40;0.40;;;;;;;;;;4965590;28;20308;-72
2024/01/09 07:04:39;;;;;;;0.70;0.70;;;;;;;;;;4969016;28;20226;-72
2024/01/09 07:07:07;;;;;;;1.07;1.03;;;;;;;;;;4959581;28;20218;-72
2024/01/09 07:09:38;;;;;;;1.30;1.20;;;;;;;;;;4960405;28;20320;-72
2024/01/09 07:12:06;;;;;;;0.63;0.63;;;;;;;;;;4965491;28;20728;-72
2024/01/09 07:14:36;;;;;;;0.20;0.20;;;;;;;;;;4961022;28;20237;-72
2024/01/09 07:17:07;;;;;;;0.53;0.53;;;;;;;;;;4955022;28;20230;-72
2024/01/09 07:19:34;;;;;;;0.43;0.43;;;;;;;;;;4956792;28;20229;-72
2024/01/09 07:22:00;;;;;;;0.90;0.90;;;;;;;;;;4958164;28;20281;-72
2024/01/09 07:24:27;;;;;;;1.50;1.43;;;;;;;;;;4961654;28;20222;-71
2024/01/09 07:26:53;;;;;;;1.27;1.20;;;;;;;;;;4967854;28;20325;-72
2024/01/09 07:29:19;;;;;;;1.93;1.57;;;;;;;;;;4968689;28;20640;-72
2024/01/09 07:31:47;;;;;;;0.77;0.77;;;;;;;;;;4982966;28;20653;-71
2024/01/09 07:34:14;;;;;;;2.33;1.13;;;;;;;;;;4966808;28;20225;-72
2024/01/09 07:36:42;;;;;;;0.30;0.30;;;;;;;;;;4965792;28;20230;-72
2024/01/09 07:39:09;;;;;;;2.53;1.90;;;;;;;;;;4967101;28;20223;-72
2024/01/09 07:41:36;;;;;;;1.13;1.13;;;;;;;;;;4969336;28;20229;-72
2024/01/09 07:44:03;;;;;;;1.10;1.10;;;;;;;;;;4969236;28;20745;-72
2024/01/09 07:46:32;;;;;;;0.47;0.47;;;;;;;;;;4970340;28;20230;-71
2024/01/09 07:48:59;;;;;;;0.57;0.57;;;;;;;;;;4963905;28;20317;-72
2024/01/09 07:51:26;;;;;;;0.50;0.50;;;;;;;;;;4965758;28;20230;-72
2024/01/09 07:53:53;;;;;;;0.30;0.30;;;;;;;;;;4968169;28;20234;-71
2024/01/09 07:56:19;;;;;;;1.80;1.70;;;;;;;;;;4968417;28;20733;-71
2024/01/09 07:58:46;;;;;;;0.63;0.50;;;;;;;;;;4966032;28;20228;-71
2024/01/09 08:01:13;;;;;;;0.43;0.43;;;;;;;;;;4964362;28;20226;-77
2024/01/09 08:03:40;;;;;;;0.30;0.30;;;;;;;;;;4967366;28;20765;-74
2024/01/09 08:06:16;;;;;;;1.03;1.03;;;;;;;;;;4967304;28;20606;-72
2024/01/09 08:08:43;;;;;;;2.67;1.07;;;;;;;;;;4968245;28;20640;-72
2024/01/09 08:11:14;;;;;;;1.23;1.17;;;;;;;;;;4982462;28;20313;-73
2024/01/09 08:13:40;;;;;;;0.40;0.40;;;;;;;;;;4969455;28;20257;-73
2024/01/09 08:16:08;;;;;;;0.30;0.30;;;;;;;;;;4980307;28;20600;-73
2024/01/09 08:18:35;;;;;;;0.73;0.73;;;;;;;;;;4975857;28;20714;-72
2024/01/09 08:21:01;;;;;;;2.07;1.70;;;;;;;;;;4976678;28;20238;-73
2024/01/09 08:23:28;;;;;;;5.60;1.87;;;;;;;;;;4968063;28;20248;-72
2024/01/09 08:25:54;;;;;;;6.30;1.33;;;;;;;;;;4969102;28;20313;-73
2024/01/09 08:28:20;;;;;;;0.20;0.20;;;;;;;;;;4968489;28;20230;-72
2024/01/09 08:30:47;;;;;;;0.33;0.33;;;;;;;;;;4968094;28;20246;-73
2024/01/09 08:33:14;;;;;;;0.50;0.50;;;;;;;;;;4980909;28;20233;-72
2024/01/09 08:35:40;;;;;;;1.97;1.27;;;;;;;;;;4965057;28;20256;-72
2024/01/09 08:38:07;;;;;;;0.20;0.20;;;;;;;;;;4963123;28;20309;-73
2024/01/09 08:40:33;;;;;;;0.60;0.60;;;;;;;;;;4966708;28;20606;-76
2024/01/09 08:43:00;;;;;;;0.50;0.50;;;;;;;;;;4964387;28;20320;-76
2024/01/09 08:45:27;;;;;;;1.70;1.60;;;;;;;;;;4963855;28;20244;-76
2024/01/09 08:47:53;;;;;;;2.40;2.20;;;;;;;;;;4962671;28;20237;-76
2024/01/09 08:50:20;;;;;;;1.03;1.03;;;;;;;;;;4962759;28;20233;-71
2024/01/09 08:52:46;;;;;;;1.23;1.20;;;;;;;;;;4964600;28;20256;-71
2024/01/09 08:55:13;;;;;;;0.90;0.90;;;;;;;;;;4968401;28;20605;-70
2024/01/09 08:57:39;;;;;;;1.13;1.13;;;;;;;;;;4967833;28;20230;-70
2024/01/09 09:00:07;;;;;;;6.70;2.53;;;;;;;;;;4966635;28;20225;-70
2024/01/09 09:02:34;;;;;;;2.00;1.17;;;;;;;;;;4967748;28;20674;-70
2024/01/09 09:05:01;;;;;;;1.50;1.27;;;;;;;;;;4967020;28;20714;-71
2024/01/09 09:07:27;;;;;;;0.90;0.90;;;;;;;;;;4966219;28;20241;-71
2024/01/09 09:09:54;;;;;;;0.57;0.57;;;;;;;;;;4967850;28;20600;-70
2024/01/09 09:12:21;;;;;;;1.80;1.33;;;;;;;;;;4967380;28;20218;-70
2024/01/09 09:14:47;;;;;;;0.30;0.30;;;;;;;;;;4966953;28;20626;-70
2024/01/09 09:17:16;;;;;;;2.90;1.60;;;;;;;;;;4967223;28;20230;-71
2024/01/09 09:19:43;;;;;;;0.67;0.57;;;;;;;;;;4968209;28;20226;-70
2024/01/09 09:22:10;;;;;;;0.73;0.73;;;;;;;;;;4966875;28;20233;-70
2024/01/09 09:24:37;;;;;;;4.10;1.63;;;;;;;;;;4966204;28;20226;-71
2024/01/09 09:27:04;;;;;;;0.40;0.40;;;;;;;;;;4965356;28;20262;-71
2024/01/09 09:29:33;;;;;;;1.33;1.23;;;;;;;;;;4967369;28;20277;-70
2024/01/09 09:32:04;;;;;;;3.83;2.10;;;;;;;;;;4966799;28;20309;-71
2024/01/09 09:34:32;;;;;;;2.20;1.93;;;;;;;;;;4964029;28;20318;-71
2024/01/09 09:36:59;;;;;;;0.30;0.30;;;;;;;;;;4966690;28;20292;-71
2024/01/09 09:39:26;;;;;;;0.60;0.60;;;;;;;;;;4965867;28;20316;-71
2024/01/09 09:41:59;;;;;;;7.23;1.27;;;;;;;;;;4960294;28;20261;-70
2024/01/09 09:44:26;;;;;;;1.50;1.47;;;;;;;;;;4968702;28;20240;-71
2024/01/09 09:46:58;;;;;;;1.47;1.37;;;;;;;;;;4969800;28;20721;-71
2024/01/09 09:49:25;;;;;;;1.57;1.47;;;;;;;;;;4971053;28;20317;-70
2024/01/09 09:51:53;;;;;;;0.67;0.67;;;;;;;;;;4970744;28;20604;-76
2024/01/09 09:54:22;;;;;;;1.47;1.10;;;;;;;;;;4984094;28;20276;-76
2024/01/09 09:56:48;;;;;;;1.93;0.80;;;;;;;;;;4969653;28;20272;-70
2024/01/09 09:59:15;;;;;;;1.60;1.20;;;;;;;;;;4968287;28;20226;-70
2024/01/09 10:01:44;;;;;;;0.70;0.70;;;;;;;;;;4966812;28;20663;-72
2024/01/09 10:04:27;;;;;;;1.23;1.23;;;;;;;;;;4968997;28;20227;-72
2024/01/09 10:06:58;;;;;;;1.47;1.47;;;;;;;;;;4969146;28;20234;-77
2024/01/09 10:09:34;;;;;;;1.90;1.27;;;;;;;;;;4968878;28;20262;-77
2024/01/09 10:12:00;;;;;;;2.50;1.23;;;;;;;;;;4979625;28;20721;-77
2024/01/09 10:14:26;;;;;;;0.40;0.40;;;;;;;;;;4967416;28;20624;-77
2024/01/09 10:16:54;;;;;;;0.70;0.70;;;;;;;;;;4964826;28;20793;-77
2024/01/09 10:19:27;;;;;;;1.17;1.07;;;;;;;;;;4964602;28;20226;-78
2024/01/09 10:21:53;;;;;;;0.90;0.90;;;;;;;;;;4963696;28;20726;-77
2024/01/09 10:24:19;;;;;;;1.37;1.27;;;;;;;;;;4967091;28;20233;-74
2024/01/09 10:26:50;;;;;;;3.03;1.90;;;;;;;;;;4970675;28;20619;-71
2024/01/09 10:29:17;;;;;;;1.70;1.03;;;;;;;;;;4970503;28;20718;-71
2024/01/09 10:31:44;;;;;;;0.40;0.40;;;;;;;;;;4969971;28;20750;-71
2024/01/09 10:34:12;;;;;;;1.30;1.20;;;;;;;;;;4970663;28;20607;-71
2024/01/09 10:36:39;;;;;;;3.20;1.53;;;;;;;;;;4971301;28;20718;-72
2024/01/09 10:39:06;;;;;;;0.97;0.97;;;;;;;;;;4970619;28;20237;-71
2024/01/09 10:41:33;;;;;;;0.60;0.60;;;;;;;;;;4970843;28;20233;-70
2024/01/09 10:44:00;;;;;;;3.03;1.70;;;;;;;;;;4971372;28;20277;-70
2024/01/09 10:46:29;;;;;;;1.17;1.03;;;;;;;;;;4971456;28;20230;-71
2024/01/09 10:48:57;;;;;;;2.23;2.13;;;;;;;;;;4970249;28;20565;-71
2024/01/09 10:51:24;;;;;;;0.40;0.40;;;;;;;;;;4973681;28;20230;-71
2024/01/09 10:53:51;;;;;;;1.23;1.23;;;;;;;;;;4971724;28;20274;-71
2024/01/09 10:56:19;;;;;;;0.40;0.40;;;;;;;;;;4971265;28;20234;-71
2024/01/09 10:58:47;;;;;;;0.93;0.70;;;;;;;;;;4970043;28;20229;-71
2024/01/09 11:01:15;;;;;;;1.40;1.13;;;;;;;;;;4970643;28;20229;-70
2024/01/09 11:03:43;;;;;;;1.53;1.43;;;;;;;;;;4970025;28;20745;-71
2024/01/09 11:06:14;;;;;;;2.40;1.33;;;;;;;;;;4970038;28;20229;-71
2024/01/09 11:08:43;;;;;;;1.50;1.37;;;;;;;;;;4984746;28;20374;-71
2024/01/09 11:11:13;;;;;;;1.20;1.13;;;;;;;;;;4970373;28;20234;-71
2024/01/09 11:13:46;;;;;;;1.57;1.47;;;;;;;;;;4970006;28;20246;-71
2024/01/09 11:16:17;;;;;;;1.83;1.73;;;;;;;;;;4969692;28;20237;-71
2024/01/09 11:18:44;;;;;;;0.90;0.90;;;;;;;;;;4985036;28;20232;-71
2024/01/09 11:21:11;;;;;;;1.37;1.37;;;;;;;;;;4970820;28;20667;-71
2024/01/09 11:23:45;;;;;;;5.67;1.83;;;;;;;;;;4970181;28;20229;-71
2024/01/09 11:26:12;;;;;;;0.40;0.40;;;;;;;;;;4969694;28;20647;-71
2024/01/09 11:28:42;;;;;;;1.33;1.17;;;;;;;;;;4970238;28;20651;-71
2024/01/09 11:31:13;;;;;;;2.00;1.37;;;;;;;;;;4970756;28;20241;-71
2024/01/09 11:33:42;;;;;;;0.83;0.83;;;;;;;;;;4970226;28;20667;-70
2024/01/09 11:36:11;;;;;;;4.37;1.83;;;;;;;;;;4969402;28;20237;-71
2024/01/09 11:38:38;;;;;;;0.70;0.70;;;;;;;;;;4963246;28;20792;-72
2024/01/09 11:41:06;;;;;;;1.40;1.40;;;;;;;;;;4973560;28;20717;-71
2024/01/09 11:44:05;;;;;;;0.87;0.87;;;;;;;;;;4981783;28;20656;-71
2024/01/09 11:46:36;;;;;;;0.63;0.63;;;;;;;;;;4972388;28;20233;-71
2024/01/09 11:49:05;;;;;;;2.17;1.70;;;;;;;;;;4991069;28;20293;-70
2024/01/09 11:51:33;;;;;;;1.60;1.47;;;;;;;;;;5010728;28;20233;-70
2024/01/09 11:54:01;;;;;;;0.43;0.43;;;;;;;;;;4999048;28;20754;-70
2024/01/09 11:56:28;;;;;;;1.17;1.17;;;;;;;;;;4986663;28;20252;-71
2024/01/09 11:59:00;;;;;;;0.93;0.93;;;;;;;;;;4968876;28;20789;-71
2024/01/09 12:01:27;;;;;;;0.93;0.93;;;;;;;;;;4970269;28;20595;-71
2024/01/09 12:03:57;;;;;;;0.30;0.30;;;;;;;;;;4984480;28;20233;-71
2024/01/09 12:06:25;;;;;;;16.03;1.27;;;;;;;;;;4971897;28;20720;-71
2024/01/09 12:08:53;;;;;;;1.17;0.80;;;;;;;;;;4969621;28;20237;-71
2024/01/09 12:11:20;;;;;;;1.90;1.80;;;;;;;;;;4968272;28;20838;-71
2024/01/09 12:13:48;;;;;;;0.60;0.60;;;;;;;;;;4969027;28;20226;-71
2024/01/09 12:16:18;;;;;;;1.13;0.70;;;;;;;;;;4968382;28;21259;-71
2024/01/09 12:18:57;;;;;;;0.47;0.47;;;;;;;;;;4968598;28;20234;-71
2024/01/09 12:21:26;;;;;;;0.33;0.33;;;;;;;;;;4969661;28;20619;-71
2024/01/09 12:23:55;;;;;;;1.13;1.13;;;;;;;;;;4969136;28;20231;-71
2024/01/09 12:26:43;;;;;;;0.73;0.73;;;;;;;;;;4969055;28;20226;-71
2024/01/09 12:29:10;;;;;;;0.63;0.60;;;;;;;;;;4969432;28;20726;-71
2024/01/09 12:31:37;;;;;;;0.40;0.40;;;;;;;;;;4968396;28;20237;-71
2024/01/09 12:34:04;;;;;;;1.13;1.13;;;;;;;;;;4969080;28;20300;-71
2024/01/09 12:36:34;;;;;;;0.40;0.40;;;;;;;;;;4984103;28;20788;-71
2024/01/09 12:39:01;;;;;;;1.83;1.10;;;;;;;;;;4968784;28;20238;-70
2024/01/09 12:41:29;;;;;;;0.40;0.40;;;;;;;;;;4969567;28;20227;-70
2024/01/09 12:44:07;;;;;;;1.17;1.07;;;;;;;;;;4969377;28;20615;-71
2024/01/09 12:46:34;;;;;;;0.57;0.57;;;;;;;;;;4968956;28;20237;-72
2024/01/09 12:49:00;;;;;;;2.03;1.93;;;;;;;;;;4966320;28;20586;-71
2024/01/09 12:51:32;;;;;;;0.50;0.50;;;;;;;;;;4969414;28;20222;-71
2024/01/09 12:53:58;;;;;;;1.07;1.07;;;;;;;;;;4968310;28;20252;-70
2024/01/09 12:56:25;;;;;;;1.37;0.60;;;;;;;;;;4982229;28;20288;-70
2024/01/09 12:58:52;;;;;;;2.93;2.63;;;;;;;;;;4988590;28;20307;-70
2024/01/09 13:01:18;;;;;;;0.30;0.30;;;;;;;;;;4988537;28;20236;-70
2024/01/09 13:03:45;;;;;;;0.60;0.60;;;;;;;;;;4988734;28;20225;-72
2024/01/09 13:06:13;;;;;;;0.53;0.53;;;;;;;;;;4987784;28;20315;-70
2024/01/09 13:08:40;;;;;;;0.40;0.40;;;;;;;;;;4971214;28;20222;-70
2024/01/09 13:11:09;;;;;;;0.73;0.60;;;;;;;;;;4969524;28;20280;-71
2024/01/09 13:13:37;;;;;;;0.70;0.70;;;;;;;;;;4982740;28;20225;-71
2024/01/09 13:16:06;;;;;;;4.00;2.77;;;;;;;;;;4970403;28;20269;-71
2024/01/09 13:18:36;;;;;;;0.30;0.30;;;;;;;;;;4972582;28;20745;-71
2024/01/09 13:21:02;;;;;;;1.60;1.50;;;;;;;;;;4972280;28;20257;-70
2024/01/09 13:23:30;;;;;;;0.77;0.77;;;;;;;;;;4971824;28;20226;-71
2024/01/09 13:26:01;;;;;;;1.10;1.07;;;;;;;;;;4973808;28;20244;-71
2024/01/09 13:28:31;;;;;;;2.43;1.27;;;;;;;;;;4974528;28;20339;-71
2024/01/09 13:30:58;;;;;;;1.43;1.33;;;;;;;;;;4973490;28;20317;-71
2024/01/09 13:33:46;;;;;;;1.13;1.13;;;;;;;;;;4971940;28;20233;-71
2024/01/09 13:36:13;;;;;;;0.63;0.63;;;;;;;;;;4972731;28;20240;-71
2024/01/09 13:38:44;;;;;;;0.30;0.30;;;;;;;;;;4970589;28;20312;-71
2024/01/09 13:41:13;;;;;;;4.40;2.00;;;;;;;;;;4972337;28;20236;-70
2024/01/09 13:43:40;;;;;;;1.70;1.60;;;;;;;;;;4986719;28;20234;-71
2024/01/09 13:46:11;;;;;;;3.30;1.60;;;;;;;;;;4973170;28;20241;-71
2024/01/09 13:48:42;;;;;;;1.10;1.10;;;;;;;;;;4972262;28;20312;-71
2024/01/09 13:51:13;;;;;;;0.60;0.60;;;;;;;;;;4992043;28;20233;-70
2024/01/09 13:53:42;;;;;;;0.87;0.87;;;;;;;;;;4995412;28;20605;-71
2024/01/09 13:56:10;;;;;;;1.33;1.33;;;;;;;;;;4991118;28;20709;-71
2024/01/09 13:58:37;;;;;;;2.50;1.17;;;;;;;;;;4992095;28;20583;-71
2024/01/09 14:01:04;;;;;;;0.40;0.40;;;;;;;;;;4991367;28;20340;-71
2024/01/09 14:03:54;;;;;;;1.27;1.17;;;;;;;;;;4991369;28;20284;-71
2024/01/09 14:06:21;;;;;;;0.50;0.50;;;;;;;;;;4992688;28;20701;-71
2024/01/09 14:08:47;;;;;;;1.93;1.60;;;;;;;;;;4991568;28;20229;-71
2024/01/09 14:11:14;;;;;;;1.67;1.57;;;;;;;;;;4992132;28;20717;-71
2024/01/09 14:13:41;;;;;;;1.73;1.63;;;;;;;;;;4990388;28;20671;-71
2024/01/09 14:16:08;;;;;;;0.37;0.37;;;;;;;;;;4991208;28;20237;-70
2024/01/09 14:18:34;;;;;;;1.43;1.43;;;;;;;;;;4991724;28;20229;-70
2024/01/09 14:21:04;;;;;;;3.33;2.17;;;;;;;;;;4991268;28;20263;-71
2024/01/09 14:23:30;;;;;;;0.77;0.77;;;;;;;;;;4991431;28;20228;-71
2024/01/09 14:25:57;;;;;;;1.60;1.40;;;;;;;;;;4991417;28;20233;-71
2024/01/09 14:28:23;;;;;;;0.80;0.80;;;;;;;;;;4991392;28;20229;-71
2024/01/09 14:30:50;;;;;;;3.50;1.93;;;;;;;;;;4982492;28;20228;-77
2024/01/09 14:33:17;;;;;;;1.00;1.00;;;;;;;;;;4980156;28;20287;-72
2024/01/09 14:35:43;;;;;;;0.57;0.53;;;;;;;;;;4967309;28;20222;-77
2024/01/09 14:38:10;;;;;;;1.27;1.17;;;;;;;;;;4994163;28;20233;-77
2024/01/09 14:40:36;;;;;;;2.07;1.23;;;;;;;;;;4983510;28;20225;-77
2024/01/09 14:43:03;;;;;;;0.20;0.20;;;;;;;;;;4983756;28;20225;-77
2024/01/09 14:45:29;;;;;;;1.03;0.90;;;;;;;;;;4987621;28;20241;-77